createdAt,value
2022-09-11T00:00:43.261Z,99827.20
2022-09-11T00:03:32.449Z,99825.40
2022-09-11T00:06:10.693Z,99820.60
2022-09-11T00:08:45.309Z,99820.20
2022-09-11T00:11:22.706Z,99820.00
2022-09-11T00:13:56.688Z,99820.00
2022-09-11T00:16:33.991Z,99827.20
2022-09-11T00:19:12.140Z,99826.00
2022-09-11T00:21:45.442Z,99822.60
2022-09-11T00:24:18.593Z,99823.00
2022-09-11T00:26:51.727Z,99824.40
2022-09-11T00:29:25.109Z,99824.00
2022-09-11T00:31:58.810Z,99824.20
2022-09-11T00:34:32.112Z,99824.00
2022-09-11T00:37:09.505Z,99823.40
2022-09-11T00:39:43.159Z,99824.80
2022-09-11T00:42:16.558Z,99824.20
2022-09-11T00:45:23.035Z,99824.40
2022-09-11T00:48:00.636Z,99823.00
2022-09-11T00:50:35.408Z,99812.40
2022-09-11T00:53:22.073Z,99812.20
2022-09-11T00:56:02.283Z,99811.00
2022-09-11T00:58:44.477Z,99808.40
2022-09-11T01:01:19.060Z,99801.80
2022-09-11T01:03:53.111Z,99802.60
2022-09-11T01:06:27.257Z,99794.20
2022-09-11T01:09:00.435Z,99800.40
2022-09-11T01:11:53.546Z,99806.40
2022-09-11T01:14:43.208Z,99812.80
2022-09-11T01:17:34.689Z,99811.40
2022-09-11T01:20:32.897Z,99813.20
2022-09-11T01:23:53.463Z,99803.80
2022-09-11T01:27:04.045Z,99803.40
2022-09-11T01:29:43.645Z,99804.60
2022-09-11T01:32:24.238Z,99804.80
2022-09-11T01:35:05.407Z,99806.80
2022-09-11T01:37:46.797Z,99803.20
2022-09-11T01:40:26.023Z,99804.00
2022-09-11T01:43:12.508Z,99804.00
2022-09-11T01:45:51.215Z,99799.20
2022-09-11T01:48:32.114Z,99795.40
2022-09-11T01:51:07.500Z,99793.60
2022-09-11T01:53:50.175Z,99796.80
2022-09-11T01:56:29.224Z,99796.80
2022-09-11T01:59:07.489Z,99796.20
2022-09-11T02:01:51.239Z,99791.80
2022-09-11T02:04:31.228Z,99791.40
2022-09-11T02:07:16.150Z,99790.00
2022-09-11T02:09:56.666Z,99788.80
2022-09-11T02:12:41.102Z,99788.20
2022-09-11T02:15:19.786Z,99790.80
2022-09-11T02:18:12.779Z,99785.40
2022-09-11T02:20:47.940Z,99783.20
2022-09-11T02:23:22.714Z,99786.20
2022-09-11T02:26:06.259Z,99786.00
2022-09-11T02:28:40.566Z,99786.20
2022-09-11T02:31:14.864Z,99788.00
2022-09-11T02:33:48.961Z,99783.80
2022-09-11T02:37:09.809Z,99779.20
2022-09-11T02:40:06.793Z,99785.40
2022-09-11T02:43:23.886Z,99783.00
2022-09-11T02:46:19.763Z,99780.40
2022-09-11T02:49:09.315Z,99778.20
2022-09-11T02:51:57.094Z,99774.60
2022-09-11T02:54:45.342Z,99773.00
2022-09-11T02:57:26.484Z,99780.00
2022-09-11T03:00:03.533Z,99780.20
2022-09-11T03:02:40.555Z,99774.20
2022-09-11T03:05:14.942Z,99775.60
2022-09-11T03:07:48.204Z,99779.00
2022-09-11T03:10:21.606Z,99774.40
2022-09-11T03:12:55.892Z,99777.80
2022-09-11T03:15:29.305Z,99784.60
2022-09-11T03:18:05.408Z,99782.80
2022-09-11T03:20:38.986Z,99782.80
2022-09-11T03:23:22.222Z,99790.80
2022-09-11T03:25:56.059Z,99793.60
2022-09-11T03:28:31.182Z,99789.00
2022-09-11T03:31:05.087Z,99792.00
2022-09-11T03:33:38.474Z,99801.40
2022-09-11T03:36:12.652Z,99807.40
2022-09-11T03:38:46.379Z,99805.60
2022-09-11T03:41:21.460Z,99803.40
2022-09-11T03:43:54.960Z,99807.60
2022-09-11T03:46:29.066Z,99807.40
2022-09-11T03:49:02.945Z,99809.80
2022-09-11T03:51:37.991Z,99817.60
2022-09-11T03:54:11.931Z,99822.20
2022-09-11T03:56:45.205Z,99823.60
2022-09-11T03:59:20.433Z,99824.20
2022-09-11T04:01:54.292Z,99821.20
2022-09-11T04:04:28.399Z,99815.80
2022-09-11T04:07:02.211Z,99817.60
2022-09-11T04:09:35.629Z,99810.00
2022-09-11T04:12:09.439Z,99809.80
2022-09-11T04:14:43.725Z,99814.40
2022-09-11T04:17:17.568Z,99814.00
2022-09-11T04:19:50.798Z,99813.80
2022-09-11T04:22:24.424Z,99812.20
2022-09-11T04:24:58.266Z,99815.20
2022-09-11T04:27:31.866Z,99818.00
2022-09-11T04:30:05.365Z,99814.80
2022-09-11T04:32:38.670Z,99820.20
2022-09-11T04:35:12.570Z,99821.00
2022-09-11T04:37:53.107Z,99826.80
2022-09-11T04:40:27.239Z,99824.40
2022-09-11T04:43:01.180Z,99825.00
2022-09-11T04:45:36.952Z,99823.60
2022-09-11T04:48:11.797Z,99824.40
2022-09-11T04:50:45.010Z,99824.40
2022-09-11T04:53:26.348Z,99825.20
2022-09-11T04:56:08.505Z,99819.80
2022-09-11T04:58:53.913Z,99815.40
2022-09-11T05:01:30.797Z,99812.60
2022-09-11T05:04:05.760Z,99813.60
2022-09-11T05:06:45.650Z,99810.00
2022-09-11T05:09:23.670Z,99811.60
2022-09-11T05:11:57.880Z,99807.60
2022-09-11T05:14:46.571Z,99807.00
2022-09-11T05:17:19.867Z,99806.80
2022-09-11T05:19:53.568Z,99802.00
2022-09-11T05:22:27.650Z,99806.00
2022-09-11T05:25:03.030Z,99810.60
2022-09-11T05:27:36.591Z,99810.20
2022-09-11T05:30:14.267Z,99808.60
2022-09-11T05:32:48.188Z,99816.80
2022-09-11T05:35:22.282Z,99813.80
2022-09-11T05:37:55.478Z,99813.60
2022-09-11T05:40:28.689Z,99812.20
2022-09-11T05:43:02.295Z,99818.40
2022-09-11T05:45:36.206Z,99821.60
2022-09-11T05:48:10.469Z,99822.80
2022-09-11T05:50:44.042Z,99824.40
2022-09-11T05:53:17.573Z,99827.40
2022-09-11T05:55:52.433Z,99832.00
2022-09-11T05:58:53.036Z,99834.20
2022-09-11T06:01:31.229Z,99836.00
2022-09-11T06:04:15.055Z,99837.40
2022-09-11T06:06:50.264Z,99838.20
2022-09-11T06:09:24.645Z,99841.40
2022-09-11T06:11:58.550Z,99840.00
2022-09-11T06:14:36.907Z,99839.60
2022-09-11T06:17:12.434Z,99846.20
2022-09-11T06:19:47.460Z,99849.20
2022-09-11T06:22:23.252Z,99850.40
2022-09-11T06:25:00.388Z,99853.40
2022-09-11T06:27:38.481Z,99857.40
2022-09-11T06:30:17.455Z,99854.80
2022-09-11T06:32:56.537Z,99860.80
2022-09-11T06:35:30.470Z,99866.40
2022-09-11T06:38:05.741Z,99862.80
2022-09-11T06:40:45.141Z,99859.60
2022-09-11T06:43:22.193Z,99863.00
2022-09-11T06:45:56.009Z,99865.80
2022-09-11T06:48:30.400Z,99866.20
2022-09-11T06:51:09.060Z,99864.00
2022-09-11T06:53:44.300Z,99861.60
2022-09-11T06:56:22.346Z,99867.40
2022-09-11T06:58:57.161Z,99860.40
2022-09-11T07:01:31.096Z,99863.00
2022-09-11T07:04:08.450Z,99863.60
2022-09-11T07:06:41.611Z,99862.00
2022-09-11T07:09:17.021Z,99863.40
2022-09-11T07:11:54.949Z,99867.20
2022-09-11T07:14:28.897Z,99870.00
2022-09-11T07:17:11.855Z,99869.40
2022-09-11T07:19:56.824Z,99871.40
2022-09-11T07:22:31.573Z,99870.60
2022-09-11T07:25:29.917Z,99867.20
2022-09-11T07:28:15.991Z,99868.80
2022-09-11T07:30:50.167Z,99866.40
2022-09-11T07:33:29.711Z,99863.60
2022-09-11T07:36:27.049Z,99871.20
2022-09-11T07:39:03.832Z,99869.60
2022-09-11T07:41:55.984Z,99872.60
2022-09-11T07:44:36.755Z,99876.80
2022-09-11T07:47:10.446Z,99875.40
2022-09-11T07:49:48.893Z,99876.20
2022-09-11T07:52:22.609Z,99878.00
2022-09-11T07:55:03.528Z,99877.00
2022-09-11T07:57:38.095Z,99876.00
2022-09-11T08:00:19.402Z,99878.60
2022-09-11T08:02:56.937Z,99882.80
2022-09-11T08:05:37.093Z,99885.40
2022-09-11T08:08:31.352Z,99890.20
2022-09-11T08:11:11.552Z,99892.20
2022-09-11T08:13:50.849Z,99897.40
2022-09-11T08:16:28.392Z,99898.40
2022-09-11T08:19:05.493Z,99904.00
2022-09-11T08:21:39.220Z,99898.80
2022-09-11T08:27:08.220Z,99903.20
2022-09-11T08:29:59.192Z,99904.00
2022-09-11T08:32:33.453Z,99902.00
2022-09-11T08:35:09.535Z,99901.80
2022-09-11T08:37:43.333Z,99909.80
2022-09-11T08:40:17.861Z,99914.40
2022-09-11T08:43:07.983Z,99914.60
2022-09-11T08:45:41.497Z,99921.80
2022-09-11T08:48:16.726Z,99916.40
2022-09-11T08:51:04.990Z,99913.40
2022-09-11T08:53:38.856Z,99915.60
2022-09-11T08:56:38.722Z,99915.80
2022-09-11T08:59:34.022Z,99916.80
2022-09-11T09:02:45.889Z,99915.00
2022-09-11T09:08:51.319Z,99923.00
2022-09-11T09:11:53.399Z,99923.40
2022-09-11T09:15:04.790Z,99926.60
2022-09-11T09:17:50.499Z,99926.80
2022-09-11T09:20:37.392Z,99931.80
2022-09-11T09:23:22.561Z,99932.60
2022-09-11T09:25:57.833Z,99929.20
2022-09-11T09:28:43.520Z,99928.00
2022-09-11T09:31:23.380Z,99933.80
2022-09-11T09:34:03.736Z,99930.00
2022-09-11T09:36:48.045Z,99929.60
2022-09-11T09:39:34.528Z,99926.60
2022-09-11T09:42:48.147Z,99934.80
2022-09-11T09:45:54.043Z,99924.20
2022-09-11T09:48:40.489Z,99930.20
2022-09-11T09:51:17.529Z,99932.80
2022-09-11T09:53:58.683Z,99925.80
2022-09-11T09:56:39.260Z,99926.80
2022-09-11T09:59:27.784Z,99927.60
2022-09-11T10:02:01.354Z,99927.20
2022-09-11T10:04:34.851Z,99926.40
2022-09-11T10:07:15.400Z,99926.60
2022-09-11T10:09:56.909Z,99928.40
2022-09-11T10:12:32.605Z,99931.40
2022-09-11T10:15:22.512Z,99928.60
2022-09-11T10:17:58.753Z,99932.60
2022-09-11T10:20:33.021Z,99938.80
2022-09-11T10:23:29.656Z,99931.80
2022-09-11T10:26:03.116Z,99933.20
2022-09-11T10:28:38.604Z,99928.00
2022-09-11T10:31:17.625Z,99930.40
2022-09-11T10:33:57.853Z,99931.20
2022-09-11T10:36:33.014Z,99932.80
2022-09-11T10:39:18.884Z,99932.00
2022-09-11T10:41:56.837Z,99934.20
2022-09-11T10:44:32.196Z,99926.20
2022-09-11T10:47:19.864Z,99928.40
2022-09-11T10:50:20.582Z,99933.20
2022-09-11T10:53:14.348Z,99935.60
2022-09-11T10:56:01.797Z,99942.80
2022-09-11T10:58:42.312Z,99946.60
2022-09-11T11:01:15.819Z,99947.80
2022-09-11T11:03:49.335Z,99952.60
2022-09-11T11:06:43.631Z,99945.80
2022-09-11T11:09:44.805Z,99950.80
2022-09-11T11:12:47.159Z,99957.20
2022-09-11T11:15:40.687Z,99963.40
2022-09-11T11:19:01.584Z,99959.40
2022-09-11T11:21:54.973Z,99959.80
2022-09-11T11:24:58.454Z,99964.60
2022-09-11T11:27:55.926Z,99966.20
2022-09-11T11:30:39.555Z,99957.60
2022-09-11T11:34:00.318Z,99960.00
2022-09-11T11:36:56.703Z,99955.60
2022-09-11T11:39:36.817Z,99962.00
2022-09-11T11:42:22.731Z,99967.40
2022-09-11T11:45:04.508Z,99971.00
2022-09-11T11:47:47.402Z,99973.00
2022-09-11T11:50:41.033Z,99969.60
2022-09-11T11:53:25.455Z,99973.20
2022-09-11T11:56:10.024Z,99975.20
2022-09-11T11:58:54.002Z,99968.60
2022-09-11T12:01:35.771Z,99974.60
2022-09-11T12:04:24.485Z,99976.40
2022-09-11T12:06:58.377Z,99974.40
2022-09-11T12:09:34.000Z,99981.80
2022-09-11T12:12:11.865Z,99986.00
2022-09-11T12:14:59.235Z,99989.20
2022-09-11T12:17:38.382Z,99988.00
2022-09-11T12:20:38.173Z,99993.40
2022-09-11T12:24:15.377Z,99995.40
2022-09-11T12:26:48.914Z,99998.00
2022-09-11T12:30:09.272Z,99999.40
2022-09-11T12:32:50.207Z,99985.80
2022-09-11T12:35:39.978Z,99966.00
2022-09-11T12:38:37.318Z,99970.60
2022-09-11T12:41:22.726Z,99976.00
2022-09-11T12:44:31.106Z,99981.40
2022-09-11T12:47:34.935Z,99980.40
2022-09-11T12:50:26.107Z,99982.60
2022-09-11T12:53:04.294Z,99988.60
2022-09-11T12:55:46.056Z,99983.20
2022-09-11T12:58:37.217Z,99979.40
2022-09-11T13:01:25.770Z,99973.60
2022-09-11T13:04:12.180Z,99951.00
2022-09-11T13:06:55.227Z,99963.80
2022-09-11T13:09:36.639Z,99939.20
2022-09-11T13:12:54.123Z,99962.40
2022-09-11T13:15:44.155Z,99946.20
2022-09-11T13:18:33.152Z,99944.20
2022-09-11T13:21:26.379Z,99959.60
2022-09-11T13:24:04.267Z,99973.40
2022-09-11T13:26:37.605Z,99971.80
2022-09-11T13:29:17.732Z,99945.40
2022-09-11T13:31:51.956Z,99971.40
2022-09-11T13:34:30.290Z,99978.20
2022-09-11T13:37:33.329Z,99975.40
2022-09-11T13:40:27.317Z,99978.00
2022-09-11T13:43:02.737Z,99978.40
2022-09-11T13:45:36.527Z,99984.20
2022-09-11T13:48:23.770Z,99987.60
2022-09-11T13:50:58.318Z,99987.80
2022-09-11T13:53:32.838Z,99988.80
2022-09-11T13:56:07.365Z,99985.00
2022-09-11T13:58:41.359Z,99976.60
2022-09-11T14:01:16.915Z,99974.40
2022-09-11T14:03:58.116Z,99973.00
2022-09-11T14:06:31.456Z,99983.60
2022-09-11T14:09:04.859Z,99985.60
2022-09-11T14:11:38.155Z,99985.60
2022-09-11T14:14:21.535Z,99995.80
2022-09-11T14:17:01.422Z,99994.00
2022-09-11T14:19:37.925Z,99995.40
2022-09-11T14:22:27.646Z,99998.00
2022-09-11T14:25:20.590Z,99999.40
2022-09-11T14:27:53.188Z,99997.40
2022-09-11T14:30:37.650Z,100003.80
2022-09-11T14:33:23.781Z,99999.00
2022-09-11T14:36:07.804Z,100004.00
2022-09-11T14:38:41.908Z,100006.20
2022-09-11T14:41:15.072Z,100005.00
2022-09-11T14:43:49.587Z,99995.40
2022-09-11T14:46:23.133Z,100001.40
2022-09-11T14:48:56.334Z,100003.60
2022-09-11T14:51:30.313Z,100009.00
2022-09-11T14:54:03.536Z,100007.60
2022-09-11T14:56:36.708Z,100012.80
2022-09-11T14:59:10.327Z,100013.80
2022-09-11T15:01:43.511Z,100011.60
2022-09-11T15:04:23.288Z,100010.60
2022-09-11T15:06:59.942Z,100005.40
2022-09-11T15:09:33.286Z,100008.20
2022-09-11T15:12:07.885Z,100001.40
2022-09-11T15:14:56.283Z,100009.60
2022-09-11T15:17:31.904Z,100010.40
2022-09-11T15:20:09.335Z,100015.00
2022-09-11T15:22:43.258Z,100016.20
2022-09-11T15:25:18.944Z,100015.20
2022-09-11T15:27:55.282Z,100021.60
2022-09-11T15:30:28.858Z,100021.40
2022-09-11T15:33:01.944Z,100022.00
2022-09-11T15:35:35.263Z,100021.40
2022-09-11T15:38:10.031Z,100030.20
2022-09-11T15:40:43.378Z,100030.40
2022-09-11T15:43:16.531Z,100031.00
2022-09-11T15:45:49.929Z,100034.80
2022-09-11T15:48:23.118Z,100042.20
2022-09-11T15:51:04.873Z,100039.60
2022-09-11T15:53:39.259Z,100040.80
2022-09-11T15:56:16.325Z,100042.00
2022-09-11T15:58:52.517Z,100043.60
2022-09-11T16:01:32.162Z,100043.40
2022-09-11T16:04:09.081Z,100043.40
2022-09-11T16:07:07.973Z,100040.20
2022-09-11T16:09:41.284Z,100037.60
2022-09-11T16:12:15.765Z,100040.40
2022-09-11T16:14:49.030Z,100043.60
2022-09-11T16:17:23.125Z,100045.20
2022-09-11T16:19:57.772Z,100043.40
2022-09-11T16:22:32.401Z,100046.80
2022-09-11T16:25:06.250Z,100046.40
2022-09-11T16:27:39.720Z,100049.00
2022-09-11T16:30:39.565Z,100047.00
2022-09-11T16:33:12.449Z,100045.00
2022-09-11T16:35:45.893Z,100049.80
2022-09-11T16:38:19.748Z,100050.40
2022-09-11T16:41:00.690Z,100053.40
2022-09-11T16:43:34.195Z,100052.60
2022-09-11T16:46:09.699Z,100059.00
2022-09-11T16:48:44.141Z,100062.80
2022-09-11T16:51:20.067Z,100062.20
2022-09-11T16:53:54.249Z,100061.60
2022-09-11T16:56:28.956Z,100064.00
2022-09-11T16:59:03.863Z,100065.40
2022-09-11T17:01:42.145Z,100067.40
2022-09-11T17:04:15.744Z,100067.40
2022-09-11T17:06:49.215Z,100062.40
2022-09-11T17:09:22.801Z,100064.60
2022-09-11T17:11:56.473Z,100064.40
2022-09-11T17:14:30.336Z,100062.20
2022-09-11T17:17:04.956Z,100069.80
2022-09-11T17:19:38.386Z,100072.60
2022-09-11T17:22:11.638Z,100080.60
2022-09-11T17:24:44.805Z,100078.80
2022-09-11T17:27:18.264Z,100078.00
2022-09-11T17:29:51.615Z,100079.00
2022-09-11T17:32:28.879Z,100081.00
2022-09-11T17:35:03.323Z,100086.20
2022-09-11T17:37:39.392Z,100077.40
2022-09-11T17:40:14.901Z,100079.20
2022-09-11T17:42:48.838Z,100078.20
2022-09-11T17:45:23.185Z,100086.20
2022-09-11T17:47:57.101Z,100088.00
2022-09-11T17:50:32.199Z,100093.60
2022-09-11T17:53:06.111Z,100095.80
2022-09-11T17:55:39.938Z,100095.40
2022-09-11T17:58:15.489Z,100098.00
2022-09-11T18:00:49.518Z,100098.80
2022-09-11T18:03:23.163Z,100101.60
2022-09-11T18:05:56.692Z,100097.20
2022-09-11T18:08:36.835Z,100100.60
2022-09-11T18:11:12.952Z,100103.60
2022-09-11T18:13:46.249Z,100103.40
2022-09-11T18:16:19.620Z,100104.40
2022-09-11T18:18:54.419Z,100106.20
2022-09-11T18:21:28.835Z,100102.20
2022-09-11T18:24:06.496Z,100107.00
2022-09-11T18:26:42.180Z,100109.60
2022-09-11T18:29:20.043Z,100110.00
2022-09-11T18:31:57.242Z,100107.20
2022-09-11T18:34:34.139Z,100113.80
2022-09-11T18:37:07.847Z,100113.60
2022-09-11T18:39:42.631Z,100117.80
2022-09-11T18:42:18.174Z,100118.00
2022-09-11T18:44:51.493Z,100123.80
2022-09-11T18:47:27.865Z,100124.40
2022-09-11T18:50:01.051Z,100122.40
2022-09-11T18:52:34.458Z,100120.60
2022-09-11T18:55:08.955Z,100120.20
2022-09-11T18:57:47.126Z,100127.20
2022-09-11T19:00:22.662Z,100123.80
2022-09-11T19:03:00.214Z,100125.40
2022-09-11T19:05:34.240Z,100126.60
2022-09-11T19:08:07.591Z,100130.20
2022-09-11T19:10:45.601Z,100133.20
2022-09-11T19:13:19.176Z,100134.20
2022-09-11T19:16:00.642Z,100138.40
2022-09-11T19:18:38.458Z,100137.20
2022-09-11T19:21:28.271Z,100143.60
2022-09-11T19:27:08.174Z,100142.20
2022-09-11T19:30:23.814Z,100144.20
2022-09-11T19:33:00.779Z,100141.00
2022-09-11T19:35:34.285Z,100144.20
2022-09-11T19:38:12.399Z,100143.40
2022-09-11T19:41:02.334Z,100145.00
2022-09-11T19:43:45.792Z,100148.40
2022-09-11T19:46:21.505Z,100145.00
2022-09-11T19:48:56.806Z,100147.20
2022-09-11T19:51:32.643Z,100155.00
2022-09-11T19:54:07.245Z,100149.00
2022-09-11T19:56:42.495Z,100158.20
2022-09-11T19:59:16.753Z,100159.00
2022-09-11T20:01:50.024Z,100161.40
2022-09-11T20:04:23.920Z,100158.80
2022-09-11T20:06:57.061Z,100157.20
2022-09-11T20:09:32.167Z,100161.80
2022-09-11T20:12:06.560Z,100165.40
2022-09-11T20:14:42.880Z,100165.20
2022-09-11T20:17:53.731Z,100158.40
2022-09-11T20:20:33.539Z,100159.60
2022-09-11T20:23:12.281Z,100158.40
2022-09-11T20:25:46.530Z,100166.20
2022-09-11T20:28:21.350Z,100163.40
2022-09-11T20:30:56.391Z,100167.00
2022-09-11T20:33:29.615Z,100166.00
2022-09-11T20:36:02.905Z,100166.00
2022-09-11T20:38:36.316Z,100163.40
2022-09-11T20:41:12.430Z,100160.00
2022-09-11T20:43:46.379Z,100165.40
2022-09-11T20:46:21.047Z,100160.00
2022-09-11T20:48:55.318Z,100161.80
2022-09-11T20:51:28.865Z,100161.60
2022-09-11T20:54:04.276Z,100163.40
2022-09-11T20:56:37.903Z,100161.40
2022-09-11T20:59:11.105Z,100168.00
2022-09-11T21:01:44.347Z,100170.20
2022-09-11T21:04:38.311Z,100173.20
2022-09-11T21:07:12.574Z,100175.60
2022-09-11T21:10:00.143Z,100173.40
2022-09-11T21:12:44.117Z,100173.20
2022-09-11T21:15:48.482Z,100172.80
2022-09-11T21:19:18.367Z,100172.20
2022-09-11T21:22:19.933Z,100173.80
2022-09-11T21:25:02.067Z,100169.00
2022-09-11T21:27:35.209Z,100171.00
2022-09-11T21:30:10.789Z,100169.60
2022-09-11T21:32:43.979Z,100168.40
2022-09-11T21:35:17.320Z,100168.20
2022-09-11T21:41:04.143Z,100178.80
2022-09-11T21:43:37.865Z,100184.40
2022-09-11T21:46:13.103Z,100181.20
2022-09-11T21:48:46.517Z,100184.40
2022-09-11T21:51:21.915Z,100184.00
2022-09-11T21:54:01.775Z,100184.00
2022-09-11T21:56:36.204Z,100188.60
2022-09-11T21:59:09.364Z,100189.40
2022-09-11T22:01:42.542Z,100184.60
2022-09-11T22:04:15.626Z,100183.00
2022-09-11T22:06:48.779Z,100185.20
2022-09-11T22:09:21.985Z,100182.00
2022-09-11T22:11:59.263Z,100180.80
2022-09-11T22:14:33.633Z,100180.60
2022-09-11T22:17:07.705Z,100179.00
2022-09-11T22:19:43.734Z,100179.20
2022-09-11T22:22:17.675Z,100183.20
2022-09-11T22:24:51.035Z,100185.80
2022-09-11T22:27:24.231Z,100188.60
2022-09-11T22:29:58.681Z,100187.00
2022-09-11T22:32:32.916Z,100186.40
2022-09-11T22:35:06.814Z,100186.80
2022-09-11T22:37:42.436Z,100186.80
2022-09-11T22:40:15.974Z,100184.40
2022-09-11T22:42:50.034Z,100183.80
2022-09-11T22:45:23.220Z,100186.00
2022-09-11T22:47:56.395Z,100185.00
2022-09-11T22:50:29.523Z,100184.60
2022-09-11T22:53:02.588Z,100182.00
2022-09-11T22:55:35.761Z,100181.00
2022-09-11T22:58:08.934Z,100185.40
2022-09-11T23:00:43.797Z,100181.40
2022-09-11T23:03:17.164Z,100178.60
2022-09-11T23:06:09.197Z,100173.00
2022-09-11T23:08:42.395Z,100175.00
2022-09-11T23:11:17.604Z,100173.20
2022-09-11T23:13:52.189Z,100177.20
2022-09-11T23:16:29.808Z,100177.00
2022-09-11T23:19:06.207Z,100175.40
2022-09-11T23:21:39.962Z,100180.40
2022-09-11T23:24:18.431Z,100185.40
2022-09-11T23:26:52.133Z,100181.20
2022-09-11T23:29:26.022Z,100184.60
2022-09-11T23:32:01.587Z,100183.40
2022-09-11T23:34:35.869Z,100187.80
2022-09-11T23:37:09.418Z,100182.60
2022-09-11T23:39:43.938Z,100182.40
2022-09-11T23:42:17.525Z,100183.80
2022-09-11T23:44:50.836Z,100185.80
2022-09-11T23:47:24.284Z,100186.00
2022-09-11T23:49:57.803Z,100185.80
2022-09-11T23:52:30.925Z,100182.60
2022-09-11T23:55:04.815Z,100185.00
2022-09-11T23:57:38.292Z,100186.80
